sensor_id;sensor_type;location;lat;lon;timestamp;P1;durP1;ratioP1;P2;durP2;ratioP2
8572;SDS011;4324;42.012;24.872;2023-04-24T00:01:04;6.20;;;5.70;;
8572;SDS011;4324;42.012;24.872;2023-04-24T00:03:32;6.77;;;6.20;;
8572;SDS011;4324;42.012;24.872;2023-04-24T00:05:59;5.50;;;5.00;;
8572;SDS011;4324;42.012;24.872;2023-04-24T00:08:27;6.40;;;5.63;;
8572;SDS011;4324;42.012;24.872;2023-04-24T00:10:54;5.43;;;5.03;;
8572;SDS011;4324;42.012;24.872;2023-04-24T00:13:22;6.30;;;5.77;;
8572;SDS011;4324;42.012;24.872;2023-04-24T00:15:49;6.30;;;5.40;;
8572;SDS011;4324;42.012;24.872;2023-04-24T00:18:16;7.57;;;6.83;;
8572;SDS011;4324;42.012;24.872;2023-04-24T00:20:43;9.43;;;7.17;;
8572;SDS011;4324;42.012;24.872;2023-04-24T00:23:12;7.97;;;7.23;;
8572;SDS011;4324;42.012;24.872;2023-04-24T00:25:38;7.60;;;6.80;;
8572;SDS011;4324;42.012;24.872;2023-04-24T00:28:06;8.43;;;7.60;;
8572;SDS011;4324;42.012;24.872;2023-04-24T00:30:34;7.67;;;6.93;;
8572;SDS011;4324;42.012;24.872;2023-04-24T00:33:01;7.87;;;7.17;;
8572;SDS011;4324;42.012;24.872;2023-04-24T00:35:28;7.50;;;6.80;;
8572;SDS011;4324;42.012;24.872;2023-04-24T00:37:55;6.60;;;6.10;;
8572;SDS011;4324;42.012;24.872;2023-04-24T00:40:22;7.27;;;6.37;;
8572;SDS011;4324;42.012;24.872;2023-04-24T00:42:49;7.33;;;6.63;;
8572;SDS011;4324;42.012;24.872;2023-04-24T00:45:16;9.43;;;7.60;;
8572;SDS011;4324;42.012;24.872;2023-04-24T00:47:44;10.30;;;9.10;;
8572;SDS011;4324;42.012;24.872;2023-04-24T00:50:12;10.67;;;6.83;;
8572;SDS011;4324;42.012;24.872;2023-04-24T00:52:41;7.53;;;6.93;;
8572;SDS011;4324;42.012;24.872;2023-04-24T00:55:08;8.47;;;7.60;;
8572;SDS011;4324;42.012;24.872;2023-04-24T00:57:35;8.80;;;7.13;;
8572;SDS011;4324;42.012;24.872;2023-04-24T01:00:03;8.03;;;7.23;;
8572;SDS011;4324;42.012;24.872;2023-04-24T01:02:37;7.57;;;6.87;;
8572;SDS011;4324;42.012;24.872;2023-04-24T01:05:10;10.13;;;7.13;;
8572;SDS011;4324;42.012;24.872;2023-04-24T01:07:38;8.27;;;7.50;;
8572;SDS011;4324;42.012;24.872;2023-04-24T01:10:06;6.87;;;5.80;;
8572;SDS011;4324;42.012;24.872;2023-04-24T01:12:34;6.63;;;6.03;;
8572;SDS011;4324;42.012;24.872;2023-04-24T01:15:01;7.03;;;6.33;;
8572;SDS011;4324;42.012;24.872;2023-04-24T01:17:30;8.10;;;7.40;;
8572;SDS011;4324;42.012;24.872;2023-04-24T01:19:57;10.03;;;8.97;;
8572;SDS011;4324;42.012;24.872;2023-04-24T01:22:26;9.17;;;8.23;;
8572;SDS011;4324;42.012;24.872;2023-04-24T01:24:53;11.50;;;8.70;;
8572;SDS011;4324;42.012;24.872;2023-04-24T01:27:20;10.93;;;8.57;;
8572;SDS011;4324;42.012;24.872;2023-04-24T01:29:47;10.47;;;9.43;;
8572;SDS011;4324;42.012;24.872;2023-04-24T01:32:17;10.07;;;9.07;;
8572;SDS011;4324;42.012;24.872;2023-04-24T01:34:45;10.43;;;8.87;;
8572;SDS011;4324;42.012;24.872;2023-04-24T01:37:13;8.93;;;8.13;;
8572;SDS011;4324;42.012;24.872;2023-04-24T01:39:42;12.67;;;9.93;;
8572;SDS011;4324;42.012;24.872;2023-04-24T01:42:09;9.93;;;9.03;;
8572;SDS011;4324;42.012;24.872;2023-04-24T01:44:36;11.37;;;8.40;;
8572;SDS011;4324;42.012;24.872;2023-04-24T01:47:03;9.33;;;8.30;;
8572;SDS011;4324;42.012;24.872;2023-04-24T01:49:31;8.90;;;8.03;;
8572;SDS011;4324;42.012;24.872;2023-04-24T01:52:00;10.03;;;8.10;;
8572;SDS011;4324;42.012;24.872;2023-04-24T01:54:27;9.13;;;7.70;;
8572;SDS011;4324;42.012;24.872;2023-04-24T01:56:55;8.87;;;8.07;;
8572;SDS011;4324;42.012;24.872;2023-04-24T01:59:23;9.10;;;7.80;;
8572;SDS011;4324;42.012;24.872;2023-04-24T02:01:51;9.10;;;8.20;;
8572;SDS011;4324;42.012;24.872;2023-04-24T02:04:18;8.77;;;7.80;;
8572;SDS011;4324;42.012;24.872;2023-04-24T02:06:45;18.90;;;15.10;;
8572;SDS011;4324;42.012;24.872;2023-04-24T02:09:12;30.13;;;12.40;;
8572;SDS011;4324;42.012;24.872;2023-04-24T02:11:39;15.00;;;9.50;;
8572;SDS011;4324;42.012;24.872;2023-04-24T02:14:07;11.20;;;8.40;;
8572;SDS011;4324;42.012;24.872;2023-04-24T02:16:34;9.73;;;8.73;;
8572;SDS011;4324;42.012;24.872;2023-04-24T02:19:01;13.90;;;9.13;;
8572;SDS011;4324;42.012;24.872;2023-04-24T02:21:28;9.30;;;8.43;;
8572;SDS011;4324;42.012;24.872;2023-04-24T02:23:55;8.93;;;8.03;;
8572;SDS011;4324;42.012;24.872;2023-04-24T02:26:22;10.40;;;8.37;;
8572;SDS011;4324;42.012;24.872;2023-04-24T02:28:50;9.57;;;7.53;;
8572;SDS011;4324;42.012;24.872;2023-04-24T02:31:18;8.20;;;7.50;;
8572;SDS011;4324;42.012;24.872;2023-04-24T02:33:45;8.77;;;7.70;;
8572;SDS011;4324;42.012;24.872;2023-04-24T02:36:12;11.00;;;8.23;;
8572;SDS011;4324;42.012;24.872;2023-04-24T02:38:39;13.07;;;9.27;;
8572;SDS011;4324;42.012;24.872;2023-04-24T02:41:06;10.93;;;8.23;;
8572;SDS011;4324;42.012;24.872;2023-04-24T02:43:33;8.13;;;7.33;;
8572;SDS011;4324;42.012;24.872;2023-04-24T02:46:00;8.20;;;7.43;;
8572;SDS011;4324;42.012;24.872;2023-04-24T02:48:28;8.70;;;6.90;;
8572;SDS011;4324;42.012;24.872;2023-04-24T02:50:55;9.77;;;7.97;;
8572;SDS011;4324;42.012;24.872;2023-04-24T02:53:22;7.93;;;7.07;;
8572;SDS011;4324;42.012;24.872;2023-04-24T02:55:49;8.93;;;7.80;;
8572;SDS011;4324;42.012;24.872;2023-04-24T02:58:16;8.93;;;8.03;;
8572;SDS011;4324;42.012;24.872;2023-04-24T03:00:45;9.80;;;8.40;;
8572;SDS011;4324;42.012;24.872;2023-04-24T03:03:12;12.43;;;9.20;;
8572;SDS011;4324;42.012;24.872;2023-04-24T03:05:41;7.43;;;6.63;;
8572;SDS011;4324;42.012;24.872;2023-04-24T03:08:08;7.53;;;6.90;;
8572;SDS011;4324;42.012;24.872;2023-04-24T03:10:35;6.70;;;6.03;;
8572;SDS011;4324;42.012;24.872;2023-04-24T03:13:02;6.87;;;5.90;;
8572;SDS011;4324;42.012;24.872;2023-04-24T03:15:29;6.30;;;5.80;;
8572;SDS011;4324;42.012;24.872;2023-04-24T03:17:56;8.37;;;7.53;;
8572;SDS011;4324;42.012;24.872;2023-04-24T03:20:22;8.50;;;7.40;;
8572;SDS011;4324;42.012;24.872;2023-04-24T03:22:51;10.07;;;9.03;;
8572;SDS011;4324;42.012;24.872;2023-04-24T03:25:18;9.73;;;8.70;;
8572;SDS011;4324;42.012;24.872;2023-04-24T03:27:44;11.93;;;9.47;;
8572;SDS011;4324;42.012;24.872;2023-04-24T03:30:11;9.60;;;8.60;;
8572;SDS011;4324;42.012;24.872;2023-04-24T03:32:38;15.37;;;11.60;;
8572;SDS011;4324;42.012;24.872;2023-04-24T03:35:05;12.43;;;9.90;;
8572;SDS011;4324;42.012;24.872;2023-04-24T03:37:33;12.03;;;9.93;;
8572;SDS011;4324;42.012;24.872;2023-04-24T03:40:02;11.37;;;10.37;;
8572;SDS011;4324;42.012;24.872;2023-04-24T03:42:29;11.00;;;10.00;;
8572;SDS011;4324;42.012;24.872;2023-04-24T03:44:56;13.40;;;11.97;;
8572;SDS011;4324;42.012;24.872;2023-04-24T03:47:23;19.03;;;11.40;;
8572;SDS011;4324;42.012;24.872;2023-04-24T03:49:50;11.70;;;9.60;;
8572;SDS011;4324;42.012;24.872;2023-04-24T03:52:17;10.00;;;9.10;;
8572;SDS011;4324;42.012;24.872;2023-04-24T03:54:44;9.63;;;8.67;;
8572;SDS011;4324;42.012;24.872;2023-04-24T03:57:12;9.67;;;8.17;;
8572;SDS011;4324;42.012;24.872;2023-04-24T03:59:39;8.63;;;7.13;;
8572;SDS011;4324;42.012;24.872;2023-04-24T04:02:06;10.00;;;8.97;;
8572;SDS011;4324;42.012;24.872;2023-04-24T04:04:33;12.53;;;10.53;;
8572;SDS011;4324;42.012;24.872;2023-04-24T04:06:59;10.37;;;9.27;;
8572;SDS011;4324;42.012;24.872;2023-04-24T04:09:28;9.70;;;7.70;;
8572;SDS011;4324;42.012;24.872;2023-04-24T04:11:54;8.53;;;7.50;;
8572;SDS011;4324;42.012;24.872;2023-04-24T04:14:23;6.77;;;6.17;;
8572;SDS011;4324;42.012;24.872;2023-04-24T04:16:50;6.33;;;5.73;;
8572;SDS011;4324;42.012;24.872;2023-04-24T04:19:17;6.50;;;5.90;;
8572;SDS011;4324;42.012;24.872;2023-04-24T04:21:44;7.33;;;6.63;;
8572;SDS011;4324;42.012;24.872;2023-04-24T04:24:15;7.63;;;6.63;;
8572;SDS011;4324;42.012;24.872;2023-04-24T04:26:42;5.77;;;5.27;;
8572;SDS011;4324;42.012;24.872;2023-04-24T04:29:11;6.77;;;6.07;;
8572;SDS011;4324;42.012;24.872;2023-04-24T04:31:39;8.87;;;6.80;;
8572;SDS011;4324;42.012;24.872;2023-04-24T04:34:06;8.90;;;5.83;;
8572;SDS011;4324;42.012;24.872;2023-04-24T04:36:34;6.77;;;6.17;;
8572;SDS011;4324;42.012;24.872;2023-04-24T04:39:01;9.93;;;7.43;;
8572;SDS011;4324;42.012;24.872;2023-04-24T04:41:29;7.20;;;6.00;;
8572;SDS011;4324;42.012;24.872;2023-04-24T04:43:56;6.80;;;6.20;;
8572;SDS011;4324;42.012;24.872;2023-04-24T04:46:24;5.87;;;5.37;;
8572;SDS011;4324;42.012;24.872;2023-04-24T04:48:53;6.23;;;5.63;;
8572;SDS011;4324;42.012;24.872;2023-04-24T04:51:21;7.50;;;6.80;;
8572;SDS011;4324;42.012;24.872;2023-04-24T04:53:48;8.47;;;7.63;;
8572;SDS011;4324;42.012;24.872;2023-04-24T04:56:15;9.30;;;7.87;;
8572;SDS011;4324;42.012;24.872;2023-04-24T04:58:42;13.03;;;9.40;;
8572;SDS011;4324;42.012;24.872;2023-04-24T05:01:09;11.03;;;9.63;;
8572;SDS011;4324;42.012;24.872;2023-04-24T05:03:36;19.13;;;14.13;;
8572;SDS011;4324;42.012;24.872;2023-04-24T05:06:04;16.73;;;11.03;;
8572;SDS011;4324;42.012;24.872;2023-04-24T05:08:32;18.10;;;11.53;;
8572;SDS011;4324;42.012;24.872;2023-04-24T05:10:59;15.83;;;11.23;;
8572;SDS011;4324;42.012;24.872;2023-04-24T05:13:26;13.47;;;11.27;;
8572;SDS011;4324;42.012;24.872;2023-04-24T05:15:53;12.57;;;10.60;;
8572;SDS011;4324;42.012;24.872;2023-04-24T05:18:19;13.13;;;11.20;;
8572;SDS011;4324;42.012;24.872;2023-04-24T05:20:46;16.23;;;12.10;;
8572;SDS011;4324;42.012;24.872;2023-04-24T05:23:14;14.47;;;11.83;;
8572;SDS011;4324;42.012;24.872;2023-04-24T05:25:41;13.63;;;11.87;;
8572;SDS011;4324;42.012;24.872;2023-04-24T05:28:08;14.03;;;12.60;;
8572;SDS011;4324;42.012;24.872;2023-04-24T05:30:35;15.63;;;11.23;;
8572;SDS011;4324;42.012;24.872;2023-04-24T05:33:02;11.93;;;10.67;;
8572;SDS011;4324;42.012;24.872;2023-04-24T05:35:29;14.33;;;11.80;;
8572;SDS011;4324;42.012;24.872;2023-04-24T05:37:56;15.70;;;13.10;;
8572;SDS011;4324;42.012;24.872;2023-04-24T05:40:24;16.97;;;12.60;;
8572;SDS011;4324;42.012;24.872;2023-04-24T05:42:51;20.47;;;13.23;;
8572;SDS011;4324;42.012;24.872;2023-04-24T05:45:18;18.07;;;14.03;;
8572;SDS011;4324;42.012;24.872;2023-04-24T05:47:45;15.53;;;12.53;;
8572;SDS011;4324;42.012;24.872;2023-04-24T05:50:12;16.60;;;12.20;;
8572;SDS011;4324;42.012;24.872;2023-04-24T05:52:40;13.57;;;12.17;;
8572;SDS011;4324;42.012;24.872;2023-04-24T05:55:07;12.97;;;11.63;;
8572;SDS011;4324;42.012;24.872;2023-04-24T05:57:36;17.13;;;13.00;;
8572;SDS011;4324;42.012;24.872;2023-04-24T06:00:03;15.07;;;12.57;;
8572;SDS011;4324;42.012;24.872;2023-04-24T06:02:31;19.93;;;13.13;;
8572;SDS011;4324;42.012;24.872;2023-04-24T06:04:58;14.80;;;13.23;;
8572;SDS011;4324;42.012;24.872;2023-04-24T06:07:25;16.33;;;12.43;;
8572;SDS011;4324;42.012;24.872;2023-04-24T06:09:52;13.80;;;12.50;;
8572;SDS011;4324;42.012;24.872;2023-04-24T06:12:19;16.60;;;14.00;;
8572;SDS011;4324;42.012;24.872;2023-04-24T06:14:47;17.00;;;13.07;;
8572;SDS011;4324;42.012;24.872;2023-04-24T06:17:15;21.60;;;13.97;;
8572;SDS011;4324;42.012;24.872;2023-04-24T06:19:42;15.40;;;13.80;;
8572;SDS011;4324;42.012;24.872;2023-04-24T06:22:09;14.67;;;13.17;;
8572;SDS011;4324;42.012;24.872;2023-04-24T06:24:36;12.47;;;11.27;;
8572;SDS011;4324;42.012;24.872;2023-04-24T06:27:03;13.17;;;11.77;;
8572;SDS011;4324;42.012;24.872;2023-04-24T06:29:30;14.77;;;12.83;;
8572;SDS011;4324;42.012;24.872;2023-04-24T06:31:58;16.97;;;14.17;;
8572;SDS011;4324;42.012;24.872;2023-04-24T06:34:25;14.97;;;13.43;;
8572;SDS011;4324;42.012;24.872;2023-04-24T06:36:52;14.97;;;13.43;;
8572;SDS011;4324;42.012;24.872;2023-04-24T06:39:18;15.70;;;14.00;;
8572;SDS011;4324;42.012;24.872;2023-04-24T06:41:45;15.93;;;13.23;;
8572;SDS011;4324;42.012;24.872;2023-04-24T06:44:12;16.53;;;14.83;;
8572;SDS011;4324;42.012;24.872;2023-04-24T06:46:39;14.87;;;13.30;;
8572;SDS011;4324;42.012;24.872;2023-04-24T06:49:08;15.90;;;13.30;;
8572;SDS011;4324;42.012;24.872;2023-04-24T06:51:35;15.83;;;13.87;;
8572;SDS011;4324;42.012;24.872;2023-04-24T06:54:01;14.33;;;12.40;;
8572;SDS011;4324;42.012;24.872;2023-04-24T06:56:29;14.03;;;12.57;;
8572;SDS011;4324;42.012;24.872;2023-04-24T06:58:55;14.90;;;11.87;;
8572;SDS011;4324;42.012;24.872;2023-04-24T07:01:22;17.43;;;12.47;;
8572;SDS011;4324;42.012;24.872;2023-04-24T07:03:49;14.27;;;12.43;;
8572;SDS011;4324;42.012;24.872;2023-04-24T07:06:17;13.93;;;11.20;;
8572;SDS011;4324;42.012;24.872;2023-04-24T07:08:49;12.37;;;10.90;;
8572;SDS011;4324;42.012;24.872;2023-04-24T07:11:15;19.90;;;11.97;;
8572;SDS011;4324;42.012;24.872;2023-04-24T07:13:42;13.43;;;12.00;;
8572;SDS011;4324;42.012;24.872;2023-04-24T07:16:09;14.60;;;11.83;;
8572;SDS011;4324;42.012;24.872;2023-04-24T07:18:36;15.47;;;12.07;;
8572;SDS011;4324;42.012;24.872;2023-04-24T07:21:03;14.67;;;11.33;;
8572;SDS011;4324;42.012;24.872;2023-04-24T07:23:32;12.63;;;11.43;;
8572;SDS011;4324;42.012;24.872;2023-04-24T07:25:58;12.57;;;10.57;;
8572;SDS011;4324;42.012;24.872;2023-04-24T07:28:25;12.33;;;11.00;;
8572;SDS011;4324;42.012;24.872;2023-04-24T07:30:56;12.23;;;10.97;;
8572;SDS011;4324;42.012;24.872;2023-04-24T07:33:23;20.20;;;18.00;;
8572;SDS011;4324;42.012;24.872;2023-04-24T07:35:50;15.37;;;10.60;;
8572;SDS011;4324;42.012;24.872;2023-04-24T07:38:18;10.60;;;9.70;;
8572;SDS011;4324;42.012;24.872;2023-04-24T07:40:48;11.90;;;10.67;;
8572;SDS011;4324;42.012;24.872;2023-04-24T07:43:15;15.80;;;14.43;;
8572;SDS011;4324;42.012;24.872;2023-04-24T07:45:42;13.20;;;11.80;;
8572;SDS011;4324;42.012;24.872;2023-04-24T07:48:09;17.80;;;16.10;;
8572;SDS011;4324;42.012;24.872;2023-04-24T07:50:36;13.17;;;10.80;;
8572;SDS011;4324;42.012;24.872;2023-04-24T07:53:03;13.67;;;12.43;;
8572;SDS011;4324;42.012;24.872;2023-04-24T07:55:30;11.33;;;10.23;;
8572;SDS011;4324;42.012;24.872;2023-04-24T07:57:58;12.60;;;11.40;;
8572;SDS011;4324;42.012;24.872;2023-04-24T08:00:25;12.63;;;11.43;;
8572;SDS011;4324;42.012;24.872;2023-04-24T08:02:52;12.40;;;11.10;;
8572;SDS011;4324;42.012;24.872;2023-04-24T08:05:18;13.87;;;12.37;;
8572;SDS011;4324;42.012;24.872;2023-04-24T08:07:45;14.00;;;12.70;;
8572;SDS011;4324;42.012;24.872;2023-04-24T08:10:13;13.00;;;11.80;;
8572;SDS011;4324;42.012;24.872;2023-04-24T08:12:41;14.47;;;11.60;;
8572;SDS011;4324;42.012;24.872;2023-04-24T08:15:09;13.77;;;12.47;;
8572;SDS011;4324;42.012;24.872;2023-04-24T08:17:37;13.13;;;11.50;;
8572;SDS011;4324;42.012;24.872;2023-04-24T08:20:04;13.50;;;11.60;;
8572;SDS011;4324;42.012;24.872;2023-04-24T08:22:35;14.73;;;11.57;;
8572;SDS011;4324;42.012;24.872;2023-04-24T08:25:02;13.37;;;11.80;;
8572;SDS011;4324;42.012;24.872;2023-04-24T08:27:29;15.40;;;12.60;;
8572;SDS011;4324;42.012;24.872;2023-04-24T08:29:56;13.73;;;12.33;;
8572;SDS011;4324;42.012;24.872;2023-04-24T08:32:25;13.47;;;12.10;;
8572;SDS011;4324;42.012;24.872;2023-04-24T08:34:54;16.57;;;12.37;;
8572;SDS011;4324;42.012;24.872;2023-04-24T08:37:21;16.73;;;15.07;;
8572;SDS011;4324;42.012;24.872;2023-04-24T08:39:48;12.77;;;11.63;;
8572;SDS011;4324;42.012;24.872;2023-04-24T08:42:15;12.93;;;11.60;;
8572;SDS011;4324;42.012;24.872;2023-04-24T08:44:43;14.40;;;12.90;;
8572;SDS011;4324;42.012;24.872;2023-04-24T08:47:11;12.57;;;11.37;;
8572;SDS011;4324;42.012;24.872;2023-04-24T08:49:40;15.30;;;12.40;;
8572;SDS011;4324;42.012;24.872;2023-04-24T08:52:07;13.47;;;12.03;;
8572;SDS011;4324;42.012;24.872;2023-04-24T08:54:34;12.70;;;11.23;;
8572;SDS011;4324;42.012;24.872;2023-04-24T08:57:02;11.43;;;10.43;;
8572;SDS011;4324;42.012;24.872;2023-04-24T08:59:30;15.00;;;12.47;;
8572;SDS011;4324;42.012;24.872;2023-04-24T09:01:57;14.37;;;12.43;;
8572;SDS011;4324;42.012;24.872;2023-04-24T09:04:24;17.50;;;15.73;;
8572;SDS011;4324;42.012;24.872;2023-04-24T09:06:53;12.63;;;11.03;;
8572;SDS011;4324;42.012;24.872;2023-04-24T09:09:22;11.40;;;9.87;;
8572;SDS011;4324;42.012;24.872;2023-04-24T09:11:50;10.60;;;9.40;;
8572;SDS011;4324;42.012;24.872;2023-04-24T09:14:19;12.40;;;11.00;;
8572;SDS011;4324;42.012;24.872;2023-04-24T09:16:48;9.40;;;8.50;;
8572;SDS011;4324;42.012;24.872;2023-04-24T09:19:15;8.43;;;7.63;;
8572;SDS011;4324;42.012;24.872;2023-04-24T09:21:42;7.60;;;6.90;;
8572;SDS011;4324;42.012;24.872;2023-04-24T09:24:16;8.07;;;7.03;;
8572;SDS011;4324;42.012;24.872;2023-04-24T09:26:45;8.40;;;7.70;;
8572;SDS011;4324;42.012;24.872;2023-04-24T09:29:14;9.30;;;8.13;;
8572;SDS011;4324;42.012;24.872;2023-04-24T09:31:42;9.80;;;8.80;;
8572;SDS011;4324;42.012;24.872;2023-04-24T09:34:09;9.10;;;8.40;;
8572;SDS011;4324;42.012;24.872;2023-04-24T09:36:36;9.30;;;8.20;;
8572;SDS011;4324;42.012;24.872;2023-04-24T09:39:04;9.50;;;8.60;;
8572;SDS011;4324;42.012;24.872;2023-04-24T09:41:35;11.03;;;8.30;;
8572;SDS011;4324;42.012;24.872;2023-04-24T09:44:11;9.13;;;8.40;;
8572;SDS011;4324;42.012;24.872;2023-04-24T09:46:40;9.83;;;8.73;;
8572;SDS011;4324;42.012;24.872;2023-04-24T09:49:08;9.67;;;8.73;;
8572;SDS011;4324;42.012;24.872;2023-04-24T09:51:36;9.70;;;8.77;;
8572;SDS011;4324;42.012;24.872;2023-04-24T09:54:05;8.80;;;8.00;;
8572;SDS011;4324;42.012;24.872;2023-04-24T09:56:43;9.20;;;8.40;;
8572;SDS011;4324;42.012;24.872;2023-04-24T09:59:11;9.23;;;7.67;;
8572;SDS011;4324;42.012;24.872;2023-04-24T10:01:38;9.33;;;8.43;;
8572;SDS011;4324;42.012;24.872;2023-04-24T10:04:14;10.33;;;9.27;;
8572;SDS011;4324;42.012;24.872;2023-04-24T10:06:43;9.23;;;8.10;;
8572;SDS011;4324;42.012;24.872;2023-04-24T10:09:10;9.20;;;8.30;;
8572;SDS011;4324;42.012;24.872;2023-04-24T10:11:40;8.83;;;7.87;;
8572;SDS011;4324;42.012;24.872;2023-04-24T10:14:11;8.97;;;8.17;;
8572;SDS011;4324;42.012;24.872;2023-04-24T10:16:39;9.17;;;8.37;;
8572;SDS011;4324;42.012;24.872;2023-04-24T10:19:07;11.10;;;9.83;;
8572;SDS011;4324;42.012;24.872;2023-04-24T10:21:34;11.57;;;10.37;;
8572;SDS011;4324;42.012;24.872;2023-04-24T10:24:03;10.57;;;9.67;;
8572;SDS011;4324;42.012;24.872;2023-04-24T10:26:32;11.10;;;10.07;;
8572;SDS011;4324;42.012;24.872;2023-04-24T10:29:01;10.80;;;9.70;;
8572;SDS011;4324;42.012;24.872;2023-04-24T10:31:31;12.30;;;11.03;;
8572;SDS011;4324;42.012;24.872;2023-04-24T10:33:58;14.00;;;10.37;;
8572;SDS011;4324;42.012;24.872;2023-04-24T10:36:27;9.53;;;8.70;;
8572;SDS011;4324;42.012;24.872;2023-04-24T10:38:58;8.83;;;8.03;;
8572;SDS011;4324;42.012;24.872;2023-04-24T10:41:27;9.13;;;8.33;;
8572;SDS011;4324;42.012;24.872;2023-04-24T10:44:11;9.50;;;8.60;;
8572;SDS011;4324;42.012;24.872;2023-04-24T10:46:42;13.53;;;11.87;;
8572;SDS011;4324;42.012;24.872;2023-04-24T10:49:11;10.70;;;9.77;;
8572;SDS011;4324;42.012;24.872;2023-04-24T10:51:45;8.63;;;7.77;;
8572;SDS011;4324;42.012;24.872;2023-04-24T10:54:23;9.83;;;8.80;;
8572;SDS011;4324;42.012;24.872;2023-04-24T10:56:52;10.27;;;8.03;;
8572;SDS011;4324;42.012;24.872;2023-04-24T10:59:27;9.37;;;8.53;;
8572;SDS011;4324;42.012;24.872;2023-04-24T11:02:02;8.90;;;8.10;;
8572;SDS011;4324;42.012;24.872;2023-04-24T11:04:30;8.33;;;7.53;;
8572;SDS011;4324;42.012;24.872;2023-04-24T11:06:58;9.83;;;8.50;;
8572;SDS011;4324;42.012;24.872;2023-04-24T11:09:26;14.17;;;11.83;;
8572;SDS011;4324;42.012;24.872;2023-04-24T11:12:02;10.30;;;9.40;;
8572;SDS011;4324;42.012;24.872;2023-04-24T11:14:46;10.20;;;9.20;;
8572;SDS011;4324;42.012;24.872;2023-04-24T11:17:29;9.90;;;8.93;;
8572;SDS011;4324;42.012;24.872;2023-04-24T11:20:00;12.37;;;10.00;;
8572;SDS011;4324;42.012;24.872;2023-04-24T11:22:28;11.70;;;10.70;;
8572;SDS011;4324;42.012;24.872;2023-04-24T11:24:59;11.07;;;8.97;;
8572;SDS011;4324;42.012;24.872;2023-04-24T11:27:29;10.20;;;9.07;;
8572;SDS011;4324;42.012;24.872;2023-04-24T11:30:02;10.47;;;8.13;;
8572;SDS011;4324;42.012;24.872;2023-04-24T11:32:33;10.83;;;8.57;;
8572;SDS011;4324;42.012;24.872;2023-04-24T11:37:45;9.10;;;8.20;;
8572;SDS011;4324;42.012;24.872;2023-04-24T11:40:15;9.27;;;8.40;;
8572;SDS011;4324;42.012;24.872;2023-04-24T11:42:43;8.20;;;7.40;;
8572;SDS011;4324;42.012;24.872;2023-04-24T11:45:13;9.00;;;8.20;;
8572;SDS011;4324;42.012;24.872;2023-04-24T11:47:41;9.53;;;8.10;;
8572;SDS011;4324;42.012;24.872;2023-04-24T11:50:10;9.00;;;8.10;;
8572;SDS011;4324;42.012;24.872;2023-04-24T11:52:39;9.70;;;8.80;;
8572;SDS011;4324;42.012;24.872;2023-04-24T11:55:08;9.93;;;8.93;;
8572;SDS011;4324;42.012;24.872;2023-04-24T11:57:50;9.47;;;8.57;;
8572;SDS011;4324;42.012;24.872;2023-04-24T12:00:21;9.93;;;8.27;;
8572;SDS011;4324;42.012;24.872;2023-04-24T12:02:49;8.67;;;7.77;;
8572;SDS011;4324;42.012;24.872;2023-04-24T12:05:19;12.07;;;8.97;;
8572;SDS011;4324;42.012;24.872;2023-04-24T12:07:47;14.83;;;9.10;;
8572;SDS011;4324;42.012;24.872;2023-04-24T12:10:14;13.23;;;12.03;;
8572;SDS011;4324;42.012;24.872;2023-04-24T12:12:46;7.63;;;7.03;;
8572;SDS011;4324;42.012;24.872;2023-04-24T12:15:15;8.10;;;7.37;;
8572;SDS011;4324;42.012;24.872;2023-04-24T12:17:44;8.00;;;7.20;;
8572;SDS011;4324;42.012;24.872;2023-04-24T12:20:12;9.73;;;8.73;;
8572;SDS011;4324;42.012;24.872;2023-04-24T12:22:43;8.33;;;7.53;;
8572;SDS011;4324;42.012;24.872;2023-04-24T12:25:11;9.30;;;6.57;;
8572;SDS011;4324;42.012;24.872;2023-04-24T12:27:39;8.27;;;7.57;;
8572;SDS011;4324;42.012;24.872;2023-04-24T12:30:09;7.60;;;6.90;;
8572;SDS011;4324;42.012;24.872;2023-04-24T12:32:40;8.30;;;7.10;;
8572;SDS011;4324;42.012;24.872;2023-04-24T12:35:10;7.33;;;6.63;;
8572;SDS011;4324;42.012;24.872;2023-04-24T12:37:37;8.43;;;7.67;;
8572;SDS011;4324;42.012;24.872;2023-04-24T12:40:05;7.70;;;7.00;;
8572;SDS011;4324;42.012;24.872;2023-04-24T12:42:34;9.80;;;7.30;;
8572;SDS011;4324;42.012;24.872;2023-04-24T12:45:08;10.10;;;9.10;;
8572;SDS011;4324;42.012;24.872;2023-04-24T12:47:37;8.50;;;7.80;;
8572;SDS011;4324;42.012;24.872;2023-04-24T12:50:05;6.63;;;6.07;;
8572;SDS011;4324;42.012;24.872;2023-04-24T12:52:34;6.63;;;6.03;;
8572;SDS011;4324;42.012;24.872;2023-04-24T12:55:01;7.20;;;6.60;;
8572;SDS011;4324;42.012;24.872;2023-04-24T12:57:28;8.10;;;6.97;;
8572;SDS011;4324;42.012;24.872;2023-04-24T12:59:56;7.23;;;6.20;;
8572;SDS011;4324;42.012;24.872;2023-04-24T13:02:24;10.77;;;6.73;;
8572;SDS011;4324;42.012;24.872;2023-04-24T13:04:53;7.03;;;6.33;;
8572;SDS011;4324;42.012;24.872;2023-04-24T13:07:20;7.13;;;6.43;;
8572;SDS011;4324;42.012;24.872;2023-04-24T13:09:49;6.20;;;5.70;;
8572;SDS011;4324;42.012;24.872;2023-04-24T13:12:16;6.93;;;6.23;;
8572;SDS011;4324;42.012;24.872;2023-04-24T13:14:44;6.87;;;6.33;;
8572;SDS011;4324;42.012;24.872;2023-04-24T13:17:11;6.50;;;6.00;;
8572;SDS011;4324;42.012;24.872;2023-04-24T13:19:39;6.90;;;6.20;;
8572;SDS011;4324;42.012;24.872;2023-04-24T13:22:08;8.57;;;7.83;;
8572;SDS011;4324;42.012;24.872;2023-04-24T13:24:36;6.07;;;5.57;;
8572;SDS011;4324;42.012;24.872;2023-04-24T13:27:06;7.90;;;7.10;;
8572;SDS011;4324;42.012;24.872;2023-04-24T13:29:33;5.93;;;5.50;;
8572;SDS011;4324;42.012;24.872;2023-04-24T13:32:00;7.13;;;6.53;;
8572;SDS011;4324;42.012;24.872;2023-04-24T13:34:27;8.00;;;7.30;;
8572;SDS011;4324;42.012;24.872;2023-04-24T13:36:55;6.17;;;5.57;;
8572;SDS011;4324;42.012;24.872;2023-04-24T13:39:23;6.90;;;6.20;;
8572;SDS011;4324;42.012;24.872;2023-04-24T13:41:51;6.30;;;5.70;;
8572;SDS011;4324;42.012;24.872;2023-04-24T13:44:20;7.43;;;5.73;;
8572;SDS011;4324;42.012;24.872;2023-04-24T13:46:49;6.87;;;6.17;;
8572;SDS011;4324;42.012;24.872;2023-04-24T13:49:19;5.67;;;5.27;;
8572;SDS011;4324;42.012;24.872;2023-04-24T13:51:47;5.93;;;5.53;;
8572;SDS011;4324;42.012;24.872;2023-04-24T13:54:14;7.83;;;7.13;;
8572;SDS011;4324;42.012;24.872;2023-04-24T13:56:41;6.97;;;6.37;;
8572;SDS011;4324;42.012;24.872;2023-04-24T13:59:08;6.53;;;6.03;;
8572;SDS011;4324;42.012;24.872;2023-04-24T14:01:36;7.37;;;6.77;;
8572;SDS011;4324;42.012;24.872;2023-04-24T14:04:04;7.40;;;6.30;;
8572;SDS011;4324;42.012;24.872;2023-04-24T14:06:31;7.67;;;6.90;;
8572;SDS011;4324;42.012;24.872;2023-04-24T14:08:58;7.60;;;6.97;;
8572;SDS011;4324;42.012;24.872;2023-04-24T14:11:24;5.90;;;5.50;;
8572;SDS011;4324;42.012;24.872;2023-04-24T14:13:53;6.43;;;5.93;;
8572;SDS011;4324;42.012;24.872;2023-04-24T14:16:21;7.57;;;6.77;;
8572;SDS011;4324;42.012;24.872;2023-04-24T14:18:50;7.10;;;6.60;;
8572;SDS011;4324;42.012;24.872;2023-04-24T14:21:16;6.23;;;5.73;;
8572;SDS011;4324;42.012;24.872;2023-04-24T14:23:43;11.23;;;10.10;;
8572;SDS011;4324;42.012;24.872;2023-04-24T14:26:10;10.57;;;9.47;;
8572;SDS011;4324;42.012;24.872;2023-04-24T14:28:37;7.00;;;6.40;;
8572;SDS011;4324;42.012;24.872;2023-04-24T14:31:04;5.77;;;5.37;;
8572;SDS011;4324;42.012;24.872;2023-04-24T14:33:31;4.63;;;4.33;;
8572;SDS011;4324;42.012;24.872;2023-04-24T14:35:59;5.83;;;5.17;;
8572;SDS011;4324;42.012;24.872;2023-04-24T14:38:27;4.40;;;4.10;;
8572;SDS011;4324;42.012;24.872;2023-04-24T14:40:55;5.00;;;3.83;;
8572;SDS011;4324;42.012;24.872;2023-04-24T14:43:22;4.27;;;3.97;;
8572;SDS011;4324;42.012;24.872;2023-04-24T14:45:49;4.27;;;3.87;;
8572;SDS011;4324;42.012;24.872;2023-04-24T14:48:16;5.23;;;3.90;;
8572;SDS011;4324;42.012;24.872;2023-04-24T14:50:42;4.50;;;4.10;;
8572;SDS011;4324;42.012;24.872;2023-04-24T14:53:11;8.93;;;4.27;;
8572;SDS011;4324;42.012;24.872;2023-04-24T14:55:38;5.87;;;4.43;;
8572;SDS011;4324;42.012;24.872;2023-04-24T14:58:05;5.30;;;4.50;;